Time;durP1;ratioP1;P1;durP2;ratioP2;P2;SDS_P1;SDS_P2;PMS_P1;PMS_P2;Temp;Humidity;BMP_temperature;BMP_pressure;BME280_temperature;BME280_humidity;BME280_pressure;Samples;Min_cycle;Max_cycle;Signal;HPM_P1;HPM_P2
2022/09/01 00:01:40;;;;;;;;;;;;;;;23.69;82.43;96785.06;601129;236;67492;-72
2022/09/01 00:04:12;;;;;;;;;;;;;;;23.69;82.42;96782.38;601246;236;66886;-72
2022/09/01 00:06:41;;;;;;;;;;;;;;;23.69;82.44;96777.02;601188;236;65073;-72
2022/09/01 00:09:12;;;;;;;;;;;;;;;23.69;82.39;96771.66;602007;234;66999;-72
2022/09/01 00:11:41;;;;;;;;;;;;;;;23.70;82.42;96772.44;604569;234;64888;-72
2022/09/01 00:14:09;;;;;;;;;;;;;;;23.70;82.43;96764.39;604539;234;66079;-72
2022/09/01 00:16:38;;;;;;;;;;;;;;;23.69;82.42;96771.66;604556;234;65477;-72
2022/09/01 00:19:07;;;;;;;;;;;;;;;23.70;82.43;96764.39;604613;234;67100;-72
2022/09/01 00:21:39;;;;;;;;;;;;;;;23.68;82.40;96770.07;604559;234;65065;-72
2022/09/01 00:24:09;;;;;;;;;;;;;;;23.68;82.37;96770.07;604612;234;67170;-72
2022/09/01 00:26:37;;;;;;;;;;;;;;;23.69;82.38;96768.97;604562;234;67123;-72
2022/09/01 00:29:05;;;;;;;;;;;;;;;23.69;82.43;96773.55;604554;234;63041;-72
2022/09/01 00:31:33;;;;;;;;;;;;;;;23.69;82.43;96765.50;604621;234;65287;-72
2022/09/01 00:34:01;;;;;;;;;;;;;;;23.69;82.47;96766.28;604557;234;66824;-72
2022/09/01 00:36:30;;;;;;;;;;;;;;;23.68;82.51;96775.44;604629;234;62756;-72
2022/09/01 00:38:58;;;;;;;;;;;;;;;23.69;82.53;96766.28;604530;234;67164;-72
2022/09/01 00:41:28;;;;;;;;;;;;;;;23.68;82.56;96764.70;604597;234;64579;-72
2022/09/01 00:43:58;;;;;;;;;;;;;;;23.69;82.58;96768.18;604545;234;62844;-71
2022/09/01 00:46:27;;;;;;;;;;;;;;;23.68;82.57;96778.12;604599;234;67275;-72
2022/09/01 00:49:02;;;;;;;;;;;;;;;23.68;82.59;96775.44;604540;234;66984;-72
2022/09/01 00:51:31;;;;;;;;;;;;;;;23.68;82.61;96767.39;604559;234;64987;-72
2022/09/01 00:54:01;;;;;;;;;;;;;;;23.68;82.60;96774.61;604605;234;67104;-72
2022/09/01 00:56:30;;;;;;;;;;;;;;;23.68;82.60;96769.25;604564;234;64769;-72
2022/09/01 00:59:00;;;;;;;;;;;;;;;23.68;82.61;96769.25;604622;234;62761;-72
2022/09/01 01:01:28;;;;;;;;;;;;;;;23.68;82.71;96769.25;604560;234;64913;-72
2022/09/01 01:04:01;;;;;;;;;;;;;;;23.68;82.66;96775.44;604591;234;65312;-72
2022/09/01 01:06:28;;;;;;;;;;;;;;;23.67;82.66;96776.51;604432;234;65137;-72
2022/09/01 01:08:57;;;;;;;;;;;;;;;23.66;82.66;96761.52;604058;234;65168;-72
2022/09/01 01:11:27;;;;;;;;;;;;;;;23.68;82.67;96761.20;601165;236;65051;-72
2022/09/01 01:13:57;;;;;;;;;;;;;;;23.68;82.73;96766.56;601160;236;62951;-72
2022/09/01 01:16:27;;;;;;;;;;;;;;;23.67;82.69;96765.78;601173;236;65161;-72
2022/09/01 01:18:55;;;;;;;;;;;;;;;23.67;82.72;96764.98;601149;236;67089;-72
2022/09/01 01:24:19;;;;;;;;;;;;;;;23.66;82.71;96766.88;601197;236;66996;-71
2022/09/01 01:26:48;;;;;;;;;;;;;;;23.66;82.69;96766.09;601226;236;66643;-71
2022/09/01 01:29:16;;;;;;;;;;;;;;;23.66;82.64;96764.20;601110;236;65143;-71
2022/09/01 01:31:52;;;;;;;;;;;;;;;23.66;82.67;96761.52;601209;236;65304;-71
2022/09/01 01:34:17;;;;;;;;;;;;;;;23.66;82.68;96756.14;600979;236;66960;-71
2022/09/01 01:36:47;;;;;;;;;;;;;;;23.65;82.71;96757.25;595892;236;66668;-71
2022/09/01 01:39:17;;;;;;;;;;;;;;;23.65;82.70;96757.25;601207;236;65124;-71
2022/09/01 01:41:47;;;;;;;;;;;;;;;23.66;82.73;96764.20;601133;236;66860;-71
2022/09/01 01:44:17;;;;;;;;;;;;;;;23.66;82.60;96772.24;601203;236;65667;-71
2022/09/01 01:46:48;;;;;;;;;;;;;;;23.66;82.51;96769.56;601166;236;67264;-71
2022/09/01 01:49:19;;;;;;;;;;;;;;;23.65;82.53;96776.03;601218;235;66945;-71
2022/09/01 01:51:54;;;;;;;;;;;;;;;23.66;82.58;96780.30;601171;236;65140;-71
2022/09/01 01:54:21;;;;;;;;;;;;;;;23.65;82.58;96773.34;601072;236;65141;-71
2022/09/01 01:56:49;;;;;;;;;;;;;;;23.65;82.55;96770.66;601166;233;67062;-71
2022/09/01 01:59:18;;;;;;;;;;;;;;;23.65;82.54;96770.66;601170;236;63008;-71
2022/09/01 02:01:48;;;;;;;;;;;;;;;23.65;82.55;96776.03;601216;236;65089;-71
2022/09/01 02:04:18;;;;;;;;;;;;;;;23.66;82.52;96771.45;601153;236;65167;-71
2022/09/01 02:06:47;;;;;;;;;;;;;;;23.66;82.48;96772.24;601175;236;62906;-71
2022/09/01 02:09:18;;;;;;;;;;;;;;;23.65;82.49;96767.98;602024;234;67440;-71
2022/09/01 02:11:46;;;;;;;;;;;;;;;23.64;82.51;96766.37;604619;234;66964;-71
2022/09/01 02:14:19;;;;;;;;;;;;;;;23.65;82.45;96770.66;604541;234;65035;-71
2022/09/01 02:16:45;;;;;;;;;;;;;;;23.65;82.45;96765.30;604492;234;67313;-71
2022/09/01 02:19:13;;;;;;;;;;;;;;;23.65;82.45;96767.98;604481;234;65389;-71
2022/09/01 02:21:43;;;;;;;;;;;;;;;23.64;82.43;96769.05;604557;234;63011;-71
2022/09/01 02:24:12;;;;;;;;;;;;;;;23.65;82.39;96764.48;604587;234;67235;-71
2022/09/01 02:26:43;;;;;;;;;;;;;;;23.65;82.36;96765.30;604551;234;67070;-71
2022/09/01 02:29:17;;;;;;;;;;;;;;;23.65;82.34;96770.66;604576;234;62978;-71
2022/09/01 02:31:43;;;;;;;;;;;;;;;23.65;82.36;96764.48;604386;234;67000;-71
2022/09/01 02:34:17;;;;;;;;;;;;;;;23.65;82.36;96764.48;604581;234;66990;-71
2022/09/01 02:36:46;;;;;;;;;;;;;;;23.65;82.37;96759.11;604542;232;65610;-71
2022/09/01 02:39:16;;;;;;;;;;;;;;;23.65;82.40;96762.61;604569;234;66705;-71
2022/09/01 02:41:44;;;;;;;;;;;;;;;23.64;82.37;96758.32;604545;234;67207;-70
2022/09/01 02:44:13;;;;;;;;;;;;;;;23.64;82.37;96752.16;604556;234;62974;-71
2022/09/01 02:46:42;;;;;;;;;;;;;;;23.64;82.37;96750.27;604519;234;65278;-70
2022/09/01 02:49:18;;;;;;;;;;;;;;;23.64;82.38;96758.32;604516;234;67035;-71
2022/09/01 02:51:47;;;;;;;;;;;;;;;23.64;82.38;96755.64;604575;232;65066;-71
2022/09/01 02:54:16;;;;;;;;;;;;;;;23.64;82.37;96757.53;604532;234;65056;-71
2022/09/01 02:56:47;;;;;;;;;;;;;;;23.64;82.38;96758.32;604601;234;64903;-71
2022/09/01 02:59:20;;;;;;;;;;;;;;;23.65;82.42;96753.75;604601;234;62800;-71
2022/09/01 03:01:50;;;;;;;;;;;;;;;23.64;82.39;96749.48;604663;234;64838;-71
2022/09/01 03:04:20;;;;;;;;;;;;;;;23.63;82.38;96750.58;604598;234;66858;-71
2022/09/01 03:06:49;;;;;;;;;;;;;;;23.63;82.37;96756.73;604642;234;65216;-71
2022/09/01 03:09:18;;;;;;;;;;;;;;;23.63;82.36;96751.38;604475;234;66916;-71
2022/09/01 03:11:47;;;;;;;;;;;;;;;23.63;82.39;96755.95;604603;234;64585;-71
2022/09/01 03:14:15;;;;;;;;;;;;;;;23.64;82.37;96763.69;604613;234;63882;-71
2022/09/01 03:16:45;;;;;;;;;;;;;;;23.64;82.34;96758.32;604581;234;67537;-71
2022/09/01 03:19:13;;;;;;;;;;;;;;;23.64;82.37;96758.32;604656;234;64761;-71
2022/09/01 03:21:43;;;;;;;;;;;;;;;23.64;82.37;96754.84;604555;234;63909;-71
2022/09/01 03:24:14;;;;;;;;;;;;;;;23.63;82.38;96762.11;604622;234;64733;-71
2022/09/01 03:26:43;;;;;;;;;;;;;;;23.64;82.41;96752.95;604593;234;67153;-71
2022/09/01 03:29:12;;;;;;;;;;;;;;;23.63;82.41;96767.47;604591;234;65034;-71
2022/09/01 03:31:41;;;;;;;;;;;;;;;23.64;82.44;96763.69;604580;234;64880;-71
2022/09/01 03:34:10;;;;;;;;;;;;;;;23.63;82.50;96767.47;604529;234;65311;-71
2022/09/01 03:36:48;;;;;;;;;;;;;;;23.64;82.52;96769.05;604615;232;43800;-71
2022/09/01 03:39:09;;;;;;;;;;;;;;;23.64;82.49;96779.78;604182;234;67549;-71
2022/09/01 03:41:38;;;;;;;;;;;;;;;23.63;82.53;96778.20;604583;234;64837;-71
2022/09/01 03:44:06;;;;;;;;;;;;;;;23.63;82.50;96785.45;604556;234;65035;-71
2022/09/01 03:46:34;;;;;;;;;;;;;;;23.62;82.47;96787.32;604610;234;64912;-71
2022/09/01 03:49:06;;;;;;;;;;;;;;;23.62;82.45;96786.53;604541;234;64796;-71
2022/09/01 03:51:34;;;;;;;;;;;;;;;23.63;82.49;96794.30;604629;234;62893;-71
2022/09/01 03:54:03;;;;;;;;;;;;;;;23.61;82.46;96796.47;604566;234;67101;-71
2022/09/01 03:56:32;;;;;;;;;;;;;;;23.62;82.45;96798.05;603212;234;66870;-70
2022/09/01 03:59:03;;;;;;;;;;;;;;;23.63;82.46;96796.19;601722;236;62979;-69
2022/09/01 04:01:40;;;;;;;;;;;;;;;23.61;82.43;96801.83;601616;236;65225;-68
2022/09/01 04:04:03;;;;;;;;;;;;;;;23.62;82.40;96802.63;601159;236;67102;-69
2022/09/01 04:06:32;;;;;;;;;;;;;;;23.60;81.83;96794.06;601223;236;65000;-69
2022/09/01 04:09:01;;;;;;;;;;;;;;;23.59;81.33;96798.64;601408;233;64894;-68
2022/09/01 04:11:32;;;;;;;;;;;;;;;23.58;80.80;96790.90;600777;236;44855;-69
2022/09/01 04:14:01;;;;;;;;;;;;;;;23.56;80.28;96787.70;600771;236;63042;-68
2022/09/01 04:19:19;;;;;;;;;;;;;;;23.55;80.75;96792.28;600720;236;67242;-69
2022/09/01 04:21:50;;;;;;;;;;;;;;;23.55;80.27;96791.48;600609;236;48021;-69
2022/09/01 04:24:20;;;;;;;;;;;;;;;23.54;80.41;96796.03;600350;236;67251;-69
2022/09/01 04:26:48;;;;;;;;;;;;;;;23.54;79.75;96792.56;600662;236;64967;-69
2022/09/01 04:29:26;;;;;;;;;;;;;;;23.52;79.60;96787.50;600713;236;64875;-68
2022/09/01 04:31:56;;;;;;;;;;;;;;;23.53;75.50;96793.66;600752;235;67598;-69
2022/09/01 04:34:25;;;;;;;;;;;;;;;23.55;77.77;96794.96;600436;236;70304;-69
2022/09/01 04:36:55;;;;;;;;;;;;;;;23.56;78.99;96793.86;600197;236;65168;-68
2022/09/01 04:39:24;;;;;;;;;;;;;;;23.55;79.55;96794.96;600717;236;64849;-70
2022/09/01 04:41:54;;;;;;;;;;;;;;;23.56;79.96;96790.39;600322;236;66585;-69
2022/09/01 04:44:24;;;;;;;;;;;;;;;23.56;80.48;96787.70;600123;235;63024;-69
2022/09/01 04:46:52;;;;;;;;;;;;;;;23.55;80.88;96784.23;599692;236;67116;-70
2022/09/01 04:49:22;;;;;;;;;;;;;;;23.55;81.20;96789.59;599804;236;67189;-69
2022/09/01 04:51:53;;;;;;;;;;;;;;;23.56;81.53;96793.86;600471;236;46599;-69
2022/09/01 04:54:23;;;;;;;;;;;;;;;23.55;81.86;96794.96;600403;236;67273;-69
2022/09/01 04:56:53;;;;;;;;;;;;;;;23.54;82.07;96790.67;600526;235;65003;-69
2022/09/01 04:59:23;;;;;;;;;;;;;;;23.54;82.16;96793.35;600568;236;65679;-69
2022/09/01 05:01:56;;;;;;;;;;;;;;;23.55;82.20;96786.91;600733;235;45611;-71
2022/09/01 05:04:26;;;;;;;;;;;;;;;23.56;82.24;96793.07;600753;236;67276;-71
2022/09/01 05:06:59;;;;;;;;;;;;;;;23.54;82.25;96787.98;600779;236;63010;-70
2022/09/01 05:09:27;;;;;;;;;;;;;;;23.54;82.27;96782.63;600047;235;66968;-72
2022/09/01 05:12:14;;;;;;;;;;;;;;;23.54;82.21;96774.58;599052;237;37695;-71
2022/09/01 05:14:47;;;;;;;;;;;;;;;23.54;82.17;96785.30;598935;237;63782;-71
2022/09/01 05:17:17;;;;;;;;;;;;;;;23.54;82.15;96785.30;599009;234;48811;-71
2022/09/01 05:19:49;;;;;;;;;;;;;;;23.54;82.14;96790.67;598955;237;67052;-71
2022/09/01 05:22:20;;;;;;;;;;;;;;;23.54;82.05;96785.30;598961;234;64691;-71
2022/09/01 05:24:50;;;;;;;;;;;;;;;23.54;82.00;96790.67;598910;236;47850;-71
2022/09/01 05:27:18;;;;;;;;;;;;;;;23.53;81.97;96794.45;598937;237;67162;-71
2022/09/01 05:29:48;;;;;;;;;;;;;;;23.53;81.96;96791.77;598931;237;62907;-71
2022/09/01 05:32:16;;;;;;;;;;;;;;;23.54;81.98;96792.56;598963;237;67916;-71
2022/09/01 05:34:45;;;;;;;;;;;;;;;23.54;82.02;96787.20;598948;237;64995;-71
2022/09/01 05:37:23;;;;;;;;;;;;;;;23.54;81.99;96787.98;598932;237;66149;-71
2022/09/01 05:39:45;;;;;;;;;;;;;;;23.53;81.99;96799.81;598031;237;65796;-71
2022/09/01 05:42:13;;;;;;;;;;;;;;;23.54;81.98;96792.56;598974;237;65029;-71
2022/09/01 05:44:42;;;;;;;;;;;;;;;23.53;81.99;96793.66;598976;237;62760;-71
2022/09/01 05:47:12;;;;;;;;;;;;;;;23.54;81.99;96789.88;598879;237;69265;-71
2022/09/01 05:49:41;;;;;;;;;;;;;;;23.53;82.02;96802.50;598861;234;65053;-70
2022/09/01 05:52:10;;;;;;;;;;;;;;;23.53;82.02;96788.30;598925;237;62992;-72
2022/09/01 05:54:40;;;;;;;;;;;;;;;23.54;79.92;96789.88;598954;237;65187;-71
2022/09/01 05:57:09;;;;;;;;;;;;;;;23.49;76.64;96796.93;598974;234;67141;-71
2022/09/01 05:59:40;;;;;;;;;;;;;;;23.50;78.82;96797.72;598949;234;65132;-71
2022/09/01 06:02:11;;;;;;;;;;;;;;;23.49;79.34;96796.14;598851;236;48467;-70
2022/09/01 06:04:42;;;;;;;;;;;;;;;23.50;79.63;96803.09;598204;237;67312;-71
2022/09/01 06:07:13;;;;;;;;;;;;;;;23.48;79.09;96803.36;599003;234;42674;-70
2022/09/01 06:09:47;;;;;;;;;;;;;;;23.49;79.05;96806.87;599757;236;44220;-70
2022/09/01 06:12:19;;;;;;;;;;;;;;;23.48;79.04;96799.89;600662;236;45475;-66
2022/09/01 06:14:49;;;;;;;;;;;;;;;23.45;76.74;96798.59;600156;235;48405;-68
2022/09/01 06:17:23;;;;;;;;;;;;;;;23.45;76.19;96798.59;597898;236;67186;-69
2022/09/01 06:19:48;;;;;;;;;;;;;;;23.48;77.35;96799.89;593543;239;67451;-69
2022/09/01 06:22:17;;;;;;;;;;;;;;;23.48;78.60;96798.00;593730;239;63112;-69
2022/09/01 06:24:47;;;;;;;;;;;;;;;23.49;78.94;96798.82;594467;236;64597;-69
2022/09/01 06:27:17;;;;;;;;;;;;;;;23.51;79.59;96795.83;597603;237;67137;-69
2022/09/01 06:29:46;;;;;;;;;;;;;;;23.52;79.94;96792.05;597602;237;65140;-69
2022/09/01 06:32:15;;;;;;;;;;;;;;;23.51;80.28;96791.26;597621;237;67585;-69
2022/09/01 06:34:48;;;;;;;;;;;;;;;23.52;80.66;96787.50;597643;237;64839;-69
2022/09/01 06:37:15;;;;;;;;;;;;;;;23.52;80.76;96786.69;597586;237;65067;-69
2022/09/01 06:39:44;;;;;;;;;;;;;;;23.52;80.94;96787.50;597578;236;67251;-71
2022/09/01 06:42:14;;;;;;;;;;;;;;;23.53;81.05;96785.61;597609;237;65049;-70
2022/09/01 06:44:46;;;;;;;;;;;;;;;23.54;81.16;96782.63;597595;237;42470;-69
2022/09/01 06:47:15;;;;;;;;;;;;;;;23.54;81.35;96776.47;597539;237;64840;-68
2022/09/01 06:49:44;;;;;;;;;;;;;;;23.54;81.49;96773.78;597628;236;64880;-69
2022/09/01 06:52:14;;;;;;;;;;;;;;;23.54;81.44;96771.89;597518;236;45192;-69
2022/09/01 06:54:43;;;;;;;;;;;;;;;23.54;81.60;96774.58;597556;237;67241;-69
2022/09/01 06:57:12;;;;;;;;;;;;;;;23.55;81.60;96778.87;597618;237;65001;-69
2022/09/01 06:59:40;;;;;;;;;;;;;;;23.55;81.65;96776.19;597635;237;63026;-69
2022/09/01 07:02:10;;;;;;;;;;;;;;;23.56;81.72;96777.77;597551;237;66998;-69
2022/09/01 07:04:42;;;;;;;;;;;;;;;23.58;81.88;96777.48;597146;237;46800;-69
2022/09/01 07:07:16;;;;;;;;;;;;;;;23.58;81.95;96782.85;597568;237;65084;-69
2022/09/01 07:10:05;;;;;;;;;;;;;;;23.58;81.99;96774.80;589557;237;48499;-69
2022/09/01 07:12:35;;;;;;;;;;;;;;;23.58;81.94;96775.59;589566;240;46265;-68
2022/09/01 07:15:16;;;;;;;;;;;;;;;23.60;81.08;96777.97;592436;235;65322;-69
2022/09/01 07:17:38;;;;;;;;;;;;;;;23.61;81.60;96769.64;596940;237;67037;-69
2022/09/01 07:20:07;;;;;;;;;;;;;;;23.65;81.74;96773.34;597636;237;67079;-68
2022/09/01 07:22:35;;;;;;;;;;;;;;;23.66;81.74;96769.56;597586;237;65163;-69
2022/09/01 07:25:03;;;;;;;;;;;;;;;23.67;81.76;96763.09;597656;237;64827;-70
2022/09/01 07:27:34;;;;;;;;;;;;;;;23.69;81.82;96765.50;597518;237;46846;-68
2022/09/01 07:30:02;;;;;;;;;;;;;;;23.69;81.70;96765.50;597603;237;63121;-68
2022/09/01 07:32:32;;;;;;;;;;;;;;;23.70;81.64;96759.82;597671;237;66911;-69
2022/09/01 07:35:01;;;;;;;;;;;;;;;23.72;81.55;96758.78;597639;237;64922;-69
2022/09/01 07:37:30;;;;;;;;;;;;;;;23.72;81.55;96756.88;597599;237;63768;-67
2022/09/01 07:39:59;;;;;;;;;;;;;;;23.72;81.59;96753.41;597613;237;66947;-68
2022/09/01 07:42:28;;;;;;;;;;;;;;;23.73;81.52;96749.62;597162;237;46422;-68
2022/09/01 07:45:16;;;;;;;;;;;;;;;23.74;81.54;96751.23;597660;237;37705;-68
2022/09/01 07:47:46;;;;;;;;;;;;;;;23.74;81.56;96745.87;597669;236;44311;-65
2022/09/01 07:50:14;;;;;;;;;;;;;;;23.74;81.61;96752.03;597580;237;64981;-67
2022/09/01 07:52:42;;;;;;;;;;;;;;;23.74;81.54;96749.34;597621;237;62687;-70
2022/09/01 07:55:14;;;;;;;;;;;;;;;23.76;81.65;96746.34;597598;237;67220;-68
2022/09/01 07:57:45;;;;;;;;;;;;;;;23.75;81.55;96745.56;597600;237;67213;-68
2022/09/01 08:00:15;;;;;;;;;;;;;;;23.76;81.65;96746.34;597648;237;64979;-69
2022/09/01 08:02:46;;;;;;;;;;;;;;;23.77;81.67;96747.96;597607;237;44407;-69
2022/09/01 08:05:19;;;;;;;;;;;;;;;23.77;81.65;96747.96;597565;236;52128;-69
2022/09/01 08:07:48;;;;;;;;;;;;;;;23.78;81.66;96744.17;597570;236;65028;-69
2022/09/01 08:10:16;;;;;;;;;;;;;;;23.77;81.64;96740.70;600510;235;67261;-69
2022/09/01 08:12:44;;;;;;;;;;;;;;;23.78;81.60;96741.49;601927;235;65042;-69
2022/09/01 08:15:12;;;;;;;;;;;;;;;23.79;81.64;96743.07;602025;235;64757;-69
2022/09/01 08:17:42;;;;;;;;;;;;;;;23.79;81.71;96743.89;602012;235;67215;-69
2022/09/01 08:20:11;;;;;;;;;;;;;;;23.80;81.70;96739.31;602010;235;44155;-69
2022/09/01 08:22:47;;;;;;;;;;;;;;;23.80;81.75;96742.00;601852;235;42368;-69
2022/09/01 08:25:17;;;;;;;;;;;;;;;23.80;81.77;96731.27;601985;235;45034;-69
2022/09/01 08:27:46;;;;;;;;;;;;;;;23.80;81.84;96723.22;601975;235;64471;-69
2022/09/01 08:30:14;;;;;;;;;;;;;;;23.81;81.92;96719.43;602060;235;63039;-69
2022/09/01 08:32:44;;;;;;;;;;;;;;;23.80;81.91;96709.80;602026;235;65708;-69
2022/09/01 08:35:15;;;;;;;;;;;;;;;23.81;81.94;96724.80;601961;235;65011;-68
2022/09/01 08:37:43;;;;;;;;;;;;;;;23.81;81.89;96719.43;602048;234;65173;-67
2022/09/01 08:40:16;;;;;;;;;;;;;;;23.81;81.89;96725.59;602000;235;64747;-67
2022/09/01 08:43:01;;;;;;;;;;;;;;;23.81;81.94;96712.17;602031;235;64280;-70
2022/09/01 08:45:38;;;;;;;;;;;;;;;23.82;82.10;96712.99;602065;235;65663;-69
2022/09/01 08:48:08;;;;;;;;;;;;;;;23.82;82.10;96710.30;601294;234;66756;-69
2022/09/01 08:50:37;;;;;;;;;;;;;;;23.81;82.14;96706.80;601779;234;66591;-70
2022/09/01 08:53:27;;;;;;;;;;;;;;;23.82;82.29;96710.30;601482;235;47252;-69
2022/09/01 08:55:57;;;;;;;;;;;;;;;23.81;82.29;96714.06;601991;235;66789;-69
2022/09/01 08:58:26;;;;;;;;;;;;;;;23.80;81.99;96707.91;602057;234;66646;-69
2022/09/01 09:01:20;;;;;;;;;;;;;;;23.81;81.80;96706.80;602072;235;37385;-69
2022/09/01 09:03:50;;;;;;;;;;;;;;;23.81;81.66;96704.12;601742;235;67052;-67
2022/09/01 09:06:29;;;;;;;;;;;;;;;23.82;81.54;96704.94;594783;235;65466;-69
2022/09/01 09:09:04;;;;;;;;;;;;;;;23.80;79.67;96707.12;601189;235;62671;-67
2022/09/01 09:11:53;;;;;;;;;;;;;;;23.83;81.16;96706.52;597612;236;64202;-73
2022/09/01 09:14:29;;;;;;;;;;;;;;;23.82;81.26;96708.41;597663;237;66542;-72
2022/09/01 09:16:56;;;;;;;;;;;;;;;23.83;81.28;96699.26;597551;237;63037;-70
2022/09/01 09:19:26;;;;;;;;;;;;;;;23.83;81.26;96701.95;597683;237;64579;-68
2022/09/01 09:21:57;;;;;;;;;;;;;;;23.83;81.25;96701.16;597524;237;48623;-68
2022/09/01 09:24:54;;;;;;;;;;;;;;;23.82;81.25;96695.00;598022;236;65053;-68
2022/09/01 09:27:30;;;;;;;;;;;;;;;23.84;81.22;96694.69;597615;237;66606;-65
2022/09/01 09:29:59;;;;;;;;;;;;;;;23.81;79.80;96698.75;597815;237;64207;-69
2022/09/01 09:32:32;;;;;;;;;;;;;;;23.80;81.18;96691.02;597407;237;65364;-71
2022/09/01 09:35:01;;;;;;;;;;;;;;;23.79;81.41;96689.41;597125;237;66706;-71
2022/09/01 09:37:31;;;;;;;;;;;;;;;23.77;81.48;96683.56;597121;237;64926;-70
2022/09/01 09:40:04;;;;;;;;;;;;;;;23.76;81.57;96680.06;597133;237;63136;-70
2022/09/01 09:42:32;;;;;;;;;;;;;;;23.76;81.62;96684.64;597625;237;64017;-66
2022/09/01 09:45:02;;;;;;;;;;;;;;;23.75;81.63;96683.84;597556;237;64266;-70
2022/09/01 09:47:39;;;;;;;;;;;;;;;23.75;81.72;96672.33;597928;236;65824;-69
2022/09/01 09:50:18;;;;;;;;;;;;;;;23.74;81.73;96673.43;597905;236;66799;-69
2022/09/01 09:52:48;;;;;;;;;;;;;;;23.74;81.79;96670.75;599859;236;67041;-69
2022/09/01 09:55:27;;;;;;;;;;;;;;;23.74;81.82;96665.38;600222;236;65063;-68
2022/09/01 09:57:58;;;;;;;;;;;;;;;23.73;81.55;96667.24;600181;236;46589;-64
2022/09/01 10:00:28;;;;;;;;;;;;;;;23.73;81.46;96671.82;599765;236;66855;-65
2022/09/01 10:03:01;;;;;;;;;;;;;;;23.72;81.66;96662.98;600325;236;65669;-68
2022/09/01 10:05:29;;;;;;;;;;;;;;;23.72;81.88;96662.98;600196;236;67653;-68
2022/09/01 10:07:58;;;;;;;;;;;;;;;23.72;81.74;96654.14;599893;236;66794;-68
2022/09/01 10:10:28;;;;;;;;;;;;;;;23.70;81.75;96655.19;600273;235;65093;-68
2022/09/01 10:12:57;;;;;;;;;;;;;;;23.71;81.58;96656.03;600271;236;65153;-68
2022/09/01 10:15:27;;;;;;;;;;;;;;;23.70;81.35;96663.23;600296;236;66768;-68
2022/09/01 10:17:57;;;;;;;;;;;;;;;23.70;81.22;96655.19;600272;236;65101;-68
2022/09/01 10:20:26;;;;;;;;;;;;;;;23.70;81.09;96649.82;600251;236;65087;-68
2022/09/01 10:22:54;;;;;;;;;;;;;;;23.70;80.93;96649.03;600322;236;64862;-67
2022/09/01 10:25:27;;;;;;;;;;;;;;;23.70;80.88;96649.82;600309;236;62474;-67
2022/09/01 10:27:56;;;;;;;;;;;;;;;23.69;80.81;96642.09;600260;236;66879;-68
2022/09/01 10:30:25;;;;;;;;;;;;;;;23.69;80.75;96642.88;600276;236;66918;-67
2022/09/01 10:32:58;;;;;;;;;;;;;;;23.70;80.70;96646.34;600269;236;65080;-68
2022/09/01 10:35:28;;;;;;;;;;;;;;;23.69;80.66;96642.88;600229;236;64792;-68
2022/09/01 10:37:57;;;;;;;;;;;;;;;23.69;80.67;96636.72;600327;236;65778;-68
2022/09/01 10:40:28;;;;;;;;;;;;;;;23.69;80.68;96640.19;600317;236;63158;-68
2022/09/01 10:42:57;;;;;;;;;;;;;;;23.69;80.65;96631.36;600238;236;66891;-66
2022/09/01 10:45:34;;;;;;;;;;;;;;;23.68;80.74;96625.20;600228;236;66589;-66
2022/09/01 10:48:20;;;;;;;;;;;;;;;23.69;80.70;96631.36;600315;236;62537;-67
2022/09/01 10:50:50;;;;;;;;;;;;;;;23.67;80.66;96631.64;600162;236;66757;-67
2022/09/01 10:53:32;;;;;;;;;;;;;;;23.67;80.67;96631.64;600279;236;66779;-66
2022/09/01 10:56:02;;;;;;;;;;;;;;;23.68;80.65;96635.11;589295;236;65313;-64
2022/09/01 10:58:48;;;;;;;;;;;;;;;23.68;80.66;96629.75;600311;236;66903;-63
2022/09/01 11:01:16;;;;;;;;;;;;;;;23.67;80.60;96631.64;600334;236;66457;-65
2022/09/01 11:03:52;;;;;;;;;;;;;;;23.66;80.60;96630.06;600188;236;65080;-64
2022/09/01 11:06:38;;;;;;;;;;;;;;;23.67;80.56;96628.95;600280;236;66923;-63
2022/09/01 11:09:07;;;;;;;;;;;;;;;23.67;80.56;96622.80;600191;236;66968;-63
2022/09/01 11:11:37;;;;;;;;;;;;;;;23.67;80.58;96630.85;600217;236;65455;-63
2022/09/01 11:14:10;;;;;;;;;;;;;;;23.67;80.58;96623.59;600326;236;64726;-66
2022/09/01 11:16:40;;;;;;;;;;;;;;;23.66;80.52;96635.42;599957;236;66896;-64
2022/09/01 11:19:26;;;;;;;;;;;;;;;23.67;80.49;96630.85;600264;236;64853;-64
2022/09/01 11:22:12;;;;;;;;;;;;;;;23.67;80.49;96628.16;600291;236;64768;-64
2022/09/01 11:24:41;;;;;;;;;;;;;;;23.67;80.59;96625.48;600283;236;66575;-64
2022/09/01 11:30:33;;;;;;;;;;;;;;;23.66;80.53;96632.74;600399;236;42332;-64
2022/09/01 11:33:09;;;;;;;;;;;;;;;23.66;80.51;96640.79;600227;236;66626;-64
2022/09/01 11:35:37;;;;;;;;;;;;;;;23.66;80.60;96638.11;600324;236;63064;-67
2022/09/01 11:38:07;;;;;;;;;;;;;;;23.66;80.62;96642.69;600306;236;67017;-67
2022/09/01 11:40:36;;;;;;;;;;;;;;;23.66;80.68;96645.37;600327;236;68424;-68
2022/09/01 11:43:05;;;;;;;;;;;;;;;23.66;80.75;96643.47;600332;236;65187;-67
2022/09/01 11:45:35;;;;;;;;;;;;;;;23.66;80.85;96642.69;599995;236;64317;-68
2022/09/01 11:48:04;;;;;;;;;;;;;;;23.66;80.78;96646.16;600230;236;72317;-68
2022/09/01 11:50:34;;;;;;;;;;;;;;;23.67;80.82;96657.67;600211;236;62771;-68
2022/09/01 11:53:06;;;;;;;;;;;;;;;23.67;80.83;96654.99;600289;236;64922;-68
2022/09/01 11:55:36;;;;;;;;;;;;;;;23.66;80.83;96658.78;600301;236;66773;-68
2022/09/01 11:58:05;;;;;;;;;;;;;;;23.67;80.85;96663.83;600294;236;62739;-67
2022/09/01 12:00:38;;;;;;;;;;;;;;;23.67;80.81;96685.30;600205;236;67106;-67
2022/09/01 12:03:08;;;;;;;;;;;;;;;23.67;80.82;96696.02;598490;236;66770;-66
2022/09/01 12:05:38;;;;;;;;;;;;;;;23.67;80.74;96717.48;597541;236;65217;-64
2022/09/01 12:08:08;;;;;;;;;;;;;;;23.67;80.61;96714.80;598397;236;64585;-64
2022/09/01 12:10:37;;;;;;;;;;;;;;;23.68;80.65;96704.86;603743;234;64852;-64
2022/09/01 12:13:09;;;;;;;;;;;;;;;23.68;80.74;96707.55;604731;234;62941;-64
2022/09/01 12:15:45;;;;;;;;;;;;;;;23.67;80.51;96696.02;604701;234;64875;-64
2022/09/01 12:18:13;;;;;;;;;;;;;;;23.67;80.43;96696.02;604330;234;63436;-66
2022/09/01 12:20:41;;;;;;;;;;;;;;;23.67;80.40;96698.70;604698;234;65102;-68
2022/09/01 12:23:17;;;;;;;;;;;;;;;23.67;78.12;96709.44;604579;234;66966;-68
2022/09/01 12:25:46;;;;;;;;;;;;;;;23.69;80.10;96707.27;604347;234;67044;-68
2022/09/01 12:28:15;;;;;;;;;;;;;;;23.70;80.84;96710.73;604682;234;63972;-68
2022/09/01 12:30:43;;;;;;;;;;;;;;;23.69;81.21;96707.27;604744;234;66988;-69
2022/09/01 12:33:13;;;;;;;;;;;;;;;23.70;81.46;96703.48;604672;234;66811;-68
2022/09/01 12:35:41;;;;;;;;;;;;;;;23.69;81.66;96707.27;604694;234;65117;-69
2022/09/01 12:38:22;;;;;;;;;;;;;;;23.69;81.80;96706.47;604744;234;66977;-68
2022/09/01 12:40:54;;;;;;;;;;;;;;;23.70;81.96;96714.20;604742;234;67097;-69
2022/09/01 12:43:37;;;;;;;;;;;;;;;23.69;82.12;96707.27;604642;234;62755;-68
2022/09/01 12:46:09;;;;;;;;;;;;;;;23.69;82.25;96703.79;604687;234;65595;-68
2022/09/01 12:48:40;;;;;;;;;;;;;;;23.69;82.38;96715.31;604683;234;67146;-68
2022/09/01 12:51:24;;;;;;;;;;;;;;;23.69;82.49;96709.16;604593;234;65105;-68
2022/09/01 12:53:54;;;;;;;;;;;;;;;23.69;82.61;96701.89;604753;234;65295;-67
2022/09/01 12:56:33;;;;;;;;;;;;;;;23.69;82.72;96685.80;604689;234;67104;-67
2022/09/01 12:59:05;;;;;;;;;;;;;;;23.69;82.73;96685.02;604746;234;65404;-68
2022/09/01 13:01:34;;;;;;;;;;;;;;;23.70;82.78;96686.59;604600;234;64875;-68
2022/09/01 13:04:16;;;;;;;;;;;;;;;23.69;82.63;96685.80;604598;234;67092;-68
2022/09/01 13:06:44;;;;;;;;;;;;;;;23.69;82.70;96683.12;604455;234;65936;-68
2022/09/01 13:09:12;;;;;;;;;;;;;;;23.69;82.63;96677.75;604808;232;67246;-68
2022/09/01 13:11:40;;;;;;;;;;;;;;;23.69;82.56;96669.70;604702;234;67280;-67
2022/09/01 13:14:10;;;;;;;;;;;;;;;23.70;82.61;96665.92;604775;234;62975;-65
2022/09/01 13:16:37;;;;;;;;;;;;;;;23.70;82.54;96665.92;604884;234;65079;-67